Detall de PIREP

Printer-friendly versionPDF version

[2010/04/10 16:30:00]
Flight IATA:CT1001
Pilot Number:026
Company ICAO:CAT
Aircraft Type:F50/A
PAX:45
Departing Airport: LICG
Destination Airport: LICD
Alternate Airport:LMML
Online: VATSIM
Route:DOBIX M740 LPD
Flight Level:FL130
No Slew and time accel
No pause
Crash detect
Detect pilot in Cockpit between each 30 and 45 minutes
16:30 Zero fuel Weight: 38804 Lbs, Fuel Weight: 2398 Lbs
16:30 VATSIM:LICG 101555Z 31005KT CAVOK 15/11 Q1018 RMK SKC VIS MIN 9999 WIND THR08 VRB04KT WIND THR21 33006KT BLU
16:30 VATSIM:LICD 101550Z 36008KT CAVOK 18/09 Q1018 RMK VIS MIN 9999
16:30 VOICE CATALONIAN / MEDITERRANEAN ODYSSEY
16:35 Parking Brakes off
16:38 Take-off
16:38 Take off Weight: 41166 Lbs
16:38 Wind: 310º @ 005 Knots Heading: 023º
16:38 POS N36º 49´ 00´´ E011º 58´ 08´´
16:38 Gear Up: 124 Knots
16:38 Flaps:2 at 124 Knots
16:39 Flaps:1 at 130 Knots
16:39 Flaps:0 at 134 K
nots
16:48 TOC
16:48 Fuel Weight: 2098 Lb
16:52 TOD
16:52 Fuel Weight: 1996 Lb
16:53 Wind:348º@016 Knots Heading: 170º Ground Speed: 267 Knots Altitude 12762 ft
17:08 Wind:349º@007 Knots Heading: 075º Ground Speed: 116 Knots Altitude 2260 ft
17:08 Flaps:1 at 117 Knots
17:10 Gear Down: 164 Knots
17:10 Flaps:2 at 148 Knots
17:11 TouchDown:Rate -211 ft/min Speed: 96 Knots
17:12 VATSIM:LICD 101550Z 36008KT CAVOK 18/09 Q1018 RMK VIS MIN 9999
17:12 Land
17:12 Wind:349º@007 Knots
17:12 Heading: 082º
17:12 Flight Duration: 00:34
17:12 Landing Weight: 40599 Lbs
17:12 POS N35º 29´ 51´´ E012º 37´ 15´´
17:19 Parking brakes on
17:19 Block to Block Duration: 00:44
17:19 Final Fuel: 1763 Lbls
17:19 Spent Fuel: 634 Lbls
17:19 Flight Length: 115 NM
17:19 TOD Land Length: 65 NM

Exportar CSV

Powered by Drupal - Modified by Danger4k